Time;durP1;ratioP1;P1;durP2;ratioP2;P2;SDS_P1;SDS_P2;PMS_P1;PMS_P2;Temp;Humidity;BMP_temperature;BMP_pressure;BME280_temperature;BME280_humidity;BME280_pressure;Samples;Min_cycle;Max_cycle;Signal;HPM_P1;HPM_P2
2022/11/21 00:04:49;;;;;;;4.15;1.75;;;;;;;-147.53;100.00;57128.34;10402101;28;20064;-72
2022/11/21 00:09:51;;;;;;;0.50;0.50;;;;;;;-147.53;100.00;57128.34;10414601;28;20038;-72
2022/11/21 00:14:52;;;;;;;0.45;0.45;;;;;;;-147.53;100.00;57128.34;10424364;28;20067;-72
2022/11/21 00:19:54;;;;;;;1.20;1.10;;;;;;;-147.53;100.00;57128.34;10400577;28;20045;-72
2022/11/21 00:24:57;;;;;;;1.33;1.10;;;;;;;-147.53;100.00;57128.34;10376492;28;20046;-72
2022/11/21 00:30:02;;;;;;;1.55;1.27;;;;;;;-147.53;100.00;57128.34;10400022;28;20057;-72
2022/11/21 00:35:05;;;;;;;2.08;1.67;;;;;;;-147.53;100.00;57128.34;10413812;28;20069;-72
2022/11/21 00:40:07;;;;;;;0.75;0.75;;;;;;;-147.53;100.00;57128.34;10399398;28;20049;-72
2022/11/21 00:45:09;;;;;;;1.85;0.93;;;;;;;-147.53;100.00;57128.34;10400315;28;20338;-72
2022/11/21 00:50:11;;;;;;;0.73;0.73;;;;;;;-147.53;100.00;57128.34;10407673;28;20045;-71
2022/11/21 00:55:13;;;;;;;0.43;0.43;;;;;;;-147.53;100.00;57128.34;10407128;28;20045;-71
2022/11/21 01:00:16;;;;;;;0.73;0.63;;;;;;;-147.53;100.00;57128.34;10399225;28;20413;-72
2022/11/21 01:05:18;;;;;;;1.02;0.95;;;;;;;-147.53;100.00;57128.34;10397573;28;20862;-72
2022/11/21 01:10:20;;;;;;;1.70;1.60;;;;;;;-147.53;100.00;57128.34;10399084;28;20049;-72
2022/11/21 01:15:22;;;;;;;0.80;0.80;;;;;;;-147.53;100.00;57128.34;10380711;28;20049;-72
2022/11/21 01:20:23;;;;;;;1.75;1.52;;;;;;;-147.53;100.00;57128.34;10390582;28;20194;-72
2022/11/21 01:25:25;;;;;;;0.73;0.70;;;;;;;-147.53;100.00;57128.34;10400979;28;20061;-72
2022/11/21 01:30:26;;;;;;;1.35;1.25;;;;;;;-147.53;100.00;57128.34;10399642;28;20039;-72
2022/11/21 01:35:28;;;;;;;1.10;0.95;;;;;;;-147.53;100.00;57128.34;10399985;28;20045;-72
2022/11/21 01:40:37;;;;;;;2.38;1.90;;;;;;;-147.53;100.00;57128.34;10397221;28;20517;-72
2022/11/21 01:45:55;;;;;;;1.58;1.48;;;;;;;-147.53;100.00;57128.34;10389621;28;20041;-72
2022/11/21 01:51:02;;;;;;;1.08;0.98;;;;;;;-147.53;100.00;57128.34;10390949;28;20045;-72
2022/11/21 01:56:04;;;;;;;1.27;1.15;;;;;;;-147.53;100.00;57128.34;10403943;28;20262;-72
2022/11/21 02:01:07;;;;;;;1.23;1.00;;;;;;;-147.53;100.00;57128.34;10404909;28;20040;-72
2022/11/21 02:06:12;;;;;;;2.60;2.40;;;;;;;-147.53;100.00;57128.34;10397736;28;20072;-72
2022/11/21 02:11:39;;;;;;;1.98;1.55;;;;;;;-147.53;100.00;57128.34;10395604;28;20041;-72
2022/11/21 02:16:41;;;;;;;2.35;1.52;;;;;;;-147.53;100.00;57128.34;10398291;28;20052;-72
2022/11/21 02:21:54;;;;;;;1.45;1.23;;;;;;;-147.53;100.00;57128.34;10387541;28;20038;-72
2022/11/21 02:26:56;;;;;;;2.58;2.00;;;;;;;-147.53;100.00;57128.34;10372011;28;20045;-72
2022/11/21 02:32:02;;;;;;;0.77;0.75;;;;;;;-147.53;100.00;57128.34;10394984;28;20045;-74
2022/11/21 02:37:03;;;;;;;1.23;0.88;;;;;;;-147.53;100.00;57128.34;10391655;28;20096;-71
2022/11/21 02:42:28;;;;;;;0.65;0.65;;;;;;;-147.53;100.00;57128.34;10411562;28;20504;-72
2022/11/21 02:47:31;;;;;;;0.47;0.47;;;;;;;-147.53;100.00;57128.34;10385301;28;20050;-71
2022/11/21 02:52:32;;;;;;;1.42;1.23;;;;;;;-147.53;100.00;57128.34;10401879;28;20245;-70
2022/11/21 02:57:34;;;;;;;0.77;0.77;;;;;;;-147.53;100.00;57128.34;10403344;28;20077;-71
2022/11/21 03:02:36;;;;;;;0.88;0.80;;;;;;;-147.53;100.00;57128.34;10401265;28;20037;-71
2022/11/21 03:07:38;;;;;;;0.70;0.70;;;;;;;-147.53;100.00;57128.34;10417598;28;20042;-71
2022/11/21 03:12:41;;;;;;;0.88;0.85;;;;;;;-147.53;100.00;57128.34;10399051;28;20144;-71
2022/11/21 03:17:47;;;;;;;1.52;1.17;;;;;;;-147.53;100.00;57128.34;10398249;28;20045;-71
2022/11/21 03:22:49;;;;;;;2.47;1.00;;;;;;;-147.53;100.00;57128.34;10396106;28;20041;-71
2022/11/21 03:27:52;;;;;;;0.57;0.57;;;;;;;-147.53;100.00;57128.34;10409761;28;20052;-70
2022/11/21 03:32:55;;;;;;;2.05;1.60;;;;;;;-147.53;100.00;57128.34;10400369;28;20122;-71
2022/11/21 03:37:56;;;;;;;1.63;1.35;;;;;;;-147.53;100.00;57128.34;10417306;28;20045;-72
2022/11/21 03:43:06;;;;;;;0.40;0.40;;;;;;;-147.53;100.00;57128.34;10394964;28;20396;-72
2022/11/21 03:48:08;;;;;;;1.88;1.30;;;;;;;-147.53;100.00;57128.34;10399288;28;20479;-71
2022/11/21 03:53:10;;;;;;;4.00;2.03;;;;;;;-147.53;100.00;57128.34;10394657;28;20069;-71
2022/11/21 03:58:11;;;;;;;0.98;0.93;;;;;;;-147.53;100.00;57128.34;10396331;28;20505;-71
2022/11/21 04:03:13;;;;;;;2.72;1.88;;;;;;;-147.53;100.00;57128.34;10400106;28;20049;-71
2022/11/21 04:08:14;;;;;;;3.05;2.08;;;;;;;-147.53;100.00;57128.34;10395358;28;20316;-72
2022/11/21 04:13:16;;;;;;;1.15;1.05;;;;;;;-147.53;100.00;57128.34;10409372;28;20049;-71
2022/11/21 04:18:18;;;;;;;0.63;0.50;;;;;;;-147.53;100.00;57128.34;10393682;28;20037;-71
2022/11/21 04:23:19;;;;;;;0.57;0.47;;;;;;;-147.53;100.00;57128.34;10398215;28;20493;-71
2022/11/21 04:28:21;;;;;;;1.58;0.45;;;;;;;-147.53;100.00;57128.34;10399901;28;20042;-70
2022/11/21 04:33:23;;;;;;;1.08;1.00;;;;;;;-147.53;100.00;57128.34;10392564;28;20075;-71
2022/11/21 04:38:24;;;;;;;0.40;0.40;;;;;;;-147.53;100.00;57128.34;10406460;28;20041;-72
2022/11/21 04:43:26;;;;;;;1.38;1.27;;;;;;;-147.53;100.00;57128.34;10389736;28;20156;-71
2022/11/21 04:48:27;;;;;;;0.98;0.88;;;;;;;-147.53;100.00;57128.34;10398446;28;20045;-71
2022/11/21 04:53:29;;;;;;;0.73;0.73;;;;;;;-147.53;100.00;57128.34;10397217;28;20051;-71
2022/11/21 04:58:30;;;;;;;1.58;0.88;;;;;;;-147.53;100.00;57128.34;10398694;28;20099;-71
2022/11/21 05:03:32;;;;;;;0.30;0.30;;;;;;;-147.53;100.00;57128.34;10395168;28;20072;-72
2022/11/21 05:08:34;;;;;;;0.95;0.93;;;;;;;-147.53;100.00;57128.34;10388494;28;20057;-73
2022/11/21 05:13:35;;;;;;;1.08;1.00;;;;;;;-147.53;100.00;57128.34;10391542;28;20037;-71
2022/11/21 05:18:37;;;;;;;1.38;1.15;;;;;;;-147.53;100.00;57128.34;10388111;28;20545;-72
2022/11/21 05:23:38;;;;;;;0.57;0.57;;;;;;;-147.53;100.00;57128.34;10389137;28;20572;-71
2022/11/21 05:28:40;;;;;;;0.50;0.50;;;;;;;-147.53;100.00;57128.34;10411860;28;20049;-71
2022/11/21 05:33:41;;;;;;;1.70;1.60;;;;;;;-147.53;100.00;57128.34;10392788;28;20311;-72
2022/11/21 05:38:43;;;;;;;0.90;0.85;;;;;;;-147.53;100.00;57128.34;10397101;28;20529;-71
2022/11/21 05:43:47;;;;;;;0.57;0.57;;;;;;;-147.53;100.00;57128.34;10391852;28;20096;-72
2022/11/21 05:48:50;;;;;;;0.57;0.57;;;;;;;-147.53;100.00;57128.34;10419949;28;20048;-71
2022/11/21 05:53:52;;;;;;;0.30;0.30;;;;;;;-147.53;100.00;57128.34;10396323;28;20437;-72
2022/11/21 06:07:27;;;;;;;1.38;1.25;;;;;;;-5.43;89.95;100328.84;10547767;27;20044;-71
2022/11/21 06:12:30;;;;;;;2.40;2.20;;;;;;;-5.38;89.68;100335.19;10556540;28;20043;-72
2022/11/21 06:17:31;;;;;;;3.22;2.45;;;;;;;-5.38;90.19;100331.75;10550476;28;20040;-73
2022/11/21 06:22:33;;;;;;;1.63;1.40;;;;;;;-5.33;89.78;100333.88;10544179;27;20047;-72
2022/11/21 06:27:34;;;;;;;0.93;0.93;;;;;;;-5.25;90.21;100324.22;10541077;28;20044;-71
2022/11/21 06:32:36;;;;;;;0.73;0.73;;;;;;;-5.16;90.58;100329.09;10541753;28;20058;-76
2022/11/21 06:37:38;;;;;;;1.15;1.05;;;;;;;-5.06;90.54;100341.75;10537865;28;20070;-70
2022/11/21 06:42:40;;;;;;;3.72;2.28;;;;;;;-5.05;90.30;100343.50;10542284;28;20043;-71
2022/11/21 06:47:41;;;;;;;2.50;2.22;;;;;;;-5.02;90.59;100347.97;10562613;28;20036;-71
2022/11/21 06:52:43;;;;;;;2.97;2.35;;;;;;;-5.01;90.76;100349.75;10537786;28;20056;-72
2022/11/21 06:57:44;;;;;;;1.42;1.33;;;;;;;-5.05;90.98;100352.84;10552495;28;20059;-70
2022/11/21 07:02:46;;;;;;;2.17;1.67;;;;;;;-5.05;90.95;100342.63;10553506;28;20035;-70
2022/11/21 07:07:47;;;;;;;1.20;1.10;;;;;;;-5.09;90.66;100345.72;10553022;28;20528;-71
2022/11/21 07:18:09;;;;;;;2.03;1.85;;;;;;;-5.03;90.80;100336.88;10518250;28;20048;-71
2022/11/21 07:23:11;;;;;;;1.25;1.13;;;;;;;-4.91;91.15;100336.84;10526319;28;20040;-70
2022/11/21 07:28:13;;;;;;;1.42;1.23;;;;;;;-4.79;91.10;100341.94;10540454;28;20462;-72
2022/11/21 07:33:15;;;;;;;2.38;1.98;;;;;;;-4.64;91.16;100352.34;10540083;28;20044;-71
2022/11/21 07:38:16;;;;;;;0.55;0.55;;;;;;;-4.46;91.29;100346.00;10524713;28;20105;-71
2022/11/21 07:43:18;;;;;;;8.45;3.22;;;;;;;-3.98;91.59;100353.47;10515337;28;20036;-73
2022/11/21 07:48:19;;;;;;;2.17;1.98;;;;;;;-3.04;91.69;100347.75;10511809;28;20416;-72
2022/11/21 07:53:21;;;;;;;1.63;1.27;;;;;;;-3.13;91.50;100356.53;10523225;28;20086;-71
2022/11/21 07:58:23;;;;;;;0.88;0.85;;;;;;;-3.27;91.14;100345.38;10520895;28;20135;-72
2022/11/21 08:03:24;;;;;;;1.98;1.50;;;;;;;-3.13;90.87;100330.94;10518220;28;20582;-74
2022/11/21 08:08:26;;;;;;;2.88;2.60;;;;;;;-3.16;90.81;100334.16;10507498;28;20047;-70
2022/11/21 08:13:28;;;;;;;1.48;0.85;;;;;;;-3.13;90.57;100330.94;10523825;28;20068;-71
2022/11/21 08:18:29;;;;;;;0.65;0.60;;;;;;;-2.97;90.39;100337.91;10505731;28;21601;-72
2022/11/21 08:23:31;;;;;;;0.77;0.77;;;;;;;-2.91;90.36;100339.19;10510303;28;20040;-72
2022/11/21 08:28:33;;;;;;;2.00;1.77;;;;;;;-2.86;90.55;100350.63;10524043;28;20040;-72
2022/11/21 08:33:34;;;;;;;1.10;1.00;;;;;;;-2.79;90.64;100340.75;10519906;28;20081;-73
2022/11/21 08:38:35;;;;;;;2.05;1.52;;;;;;;-2.69;90.51;100354.28;10521142;28;20043;-72
2022/11/21 08:43:37;;;;;;;0.65;0.63;;;;;;;-2.53;90.58;100352.66;10518275;28;20564;-73
2022/11/21 08:48:39;;;;;;;2.40;2.20;;;;;;;-2.44;90.76;100350.66;10518013;28;20441;-72
2022/11/21 08:53:41;;;;;;;1.70;0.80;;;;;;;-2.36;90.67;100340.88;10519141;28;20059;-73
2022/11/21 08:58:42;;;;;;;1.30;1.20;;;;;;;-2.22;90.68;100344.28;10522608;28;20454;-73
2022/11/21 09:03:44;;;;;;;1.55;1.33;;;;;;;-2.09;90.76;100340.78;10491778;28;20436;-73
2022/11/21 09:08:46;;;;;;;5.68;2.83;;;;;;;-1.90;90.91;100332.53;10508547;28;20043;-73
2022/11/21 09:18:01;;;;;;;0.88;0.85;;;;;;;-1.85;90.60;100324.28;10519027;28;20526;-72
2022/11/21 09:19:09;;;;;;;1.85;1.70;;;;;;;-1.60;90.88;100334.31;10520361;28;21032;-73
2022/11/21 09:24:10;;;;;;;2.17;1.40;;;;;;;-1.52;90.80;100332.19;10507122;28;20040;-76
2022/11/21 09:29:14;;;;;;;3.17;1.75;;;;;;;-1.38;90.64;100324.41;10506618;28;20044;-72
2022/11/21 09:34:15;;;;;;;1.48;1.15;;;;;;;-147.53;67.36;57128.34;10505555;28;20100;-75
2022/11/21 09:39:17;;;;;;;1.52;1.42;;;;;;;-0.75;90.21;100310.84;10507525;28;20450;-73
2022/11/21 09:44:46;;;;;;;1.05;0.95;;;;;;;-0.73;90.05;100313.50;10501575;28;20040;-73
2022/11/21 09:50:04;;;;;;;1.88;1.70;;;;;;;-0.32;89.69;100316.53;10519209;28;20086;-73
2022/11/21 09:55:41;;;;;;;1.20;1.10;;;;;;;0.01;89.45;100307.13;10520802;28;20048;-73
2022/11/21 10:00:51;;;;;;;2.67;1.52;;;;;;;0.15;88.86;100306.16;10488333;28;20043;-74
2022/11/21 10:06:19;;;;;;;0.90;0.90;;;;;;;0.28;88.75;100306.75;10494446;28;20087;-73
2022/11/21 10:11:33;;;;;;;3.25;1.83;;;;;;;0.34;88.00;100307.94;10471197;28;20106;-76
2022/11/21 10:16:57;;;;;;;3.17;1.45;;;;;;;-147.53;100.00;57128.34;10478983;28;20056;-73
2022/11/21 10:22:24;;;;;;;3.15;2.50;;;;;;;-147.53;100.00;57128.34;10478738;28;20047;-76
2022/11/21 10:27:56;;;;;;;4.18;2.72;;;;;;;-147.53;100.00;57128.34;10487515;28;20053;-76
2022/11/21 10:33:10;;;;;;;0.73;0.63;;;;;;;2.06;86.52;100272.94;10477394;28;20060;-77
2022/11/21 10:38:22;;;;;;;1.45;1.35;;;;;;;-147.53;100.00;57128.34;10478613;28;20739;-76
2022/11/21 10:49:03;;;;;;;3.97;1.90;;;;;;;-147.53;100.00;57128.34;10490578;28;19928;-76
2022/11/21 10:59:35;;;;;;;1.33;1.23;;;;;;;-147.53;100.00;57128.34;10477542;28;20043;-76
2022/11/21 11:04:36;;;;;;;1.42;1.10;;;;;;;-147.53;100.00;57128.34;10485862;28;20036;-76
2022/11/21 11:09:51;;;;;;;2.10;1.48;;;;;;;-147.53;100.00;57128.34;10498385;28;20519;-77
2022/11/21 11:14:57;;;;;;;3.78;2.05;;;;;;;-147.53;100.00;57128.34;10489789;28;21015;-75
2022/11/21 11:20:06;;;;;;;4.00;1.25;;;;;;;2.06;86.52;100272.94;10480731;28;20424;-75
2022/11/21 11:25:08;;;;;;;3.00;1.55;;;;;;;3.42;76.65;100156.75;10482996;28;20072;-76
2022/11/21 11:30:17;;;;;;;1.25;0.80;;;;;;;3.47;76.05;100160.38;10482868;28;20049;-76
2022/11/21 11:35:22;;;;;;;1.48;0.88;;;;;;;3.36;75.15;100159.09;10484681;28;20581;-75
2022/11/21 11:40:36;;;;;;;1.40;1.13;;;;;;;3.52;74.89;100147.59;10473580;28;20070;-76
2022/11/21 11:51:40;;;;;;;2.60;1.58;;;;;;;3.48;73.80;100117.25;10476396;28;20052;-75
2022/11/21 11:56:44;;;;;;;1.60;1.38;;;;;;;3.23;73.52;100116.41;10498732;28;20044;-75
2022/11/21 12:01:52;;;;;;;3.80;2.13;;;;;;;2.98;73.12;100110.31;10481351;28;20391;-76
2022/11/21 12:07:07;;;;;;;2.08;1.52;;;;;;;2.80;73.20;100120.84;10482202;28;20109;-74
2022/11/21 12:12:46;;;;;;;1.55;1.10;;;;;;;2.51;73.33;100106.84;10473234;28;20127;-75
2022/11/21 12:18:21;;;;;;;2.03;1.45;;;;;;;2.19;73.40;100090.97;10480792;28;20504;-76
2022/11/21 12:23:58;;;;;;;2.10;1.67;;;;;;;2.07;73.67;100085.28;10472912;28;20048;-76
2022/11/21 12:29:30;;;;;;;3.03;2.00;;;;;;;2.06;74.26;100076.66;10480376;28;20069;-74
2022/11/21 12:34:39;;;;;;;1.85;0.88;;;;;;;1.94;74.34;100071.03;10525934;28;20450;-75
2022/11/21 12:40:09;;;;;;;0.82;0.70;;;;;;;1.81;74.64;100076.50;10523200;28;20044;-76
2022/11/21 12:45:33;;;;;;;3.38;1.58;;;;;;;1.67;75.13;100060.47;10522962;28;20055;-75
2022/11/21 12:56:20;;;;;;;1.85;1.15;;;;;;;1.65;75.79;100050.06;10521492;28;20047;-75
2022/11/21 13:01:58;;;;;;;0.68;0.68;;;;;;;1.68;75.83;100045.03;10521417;28;20507;-75
2022/11/21 13:07:05;;;;;;;3.60;1.73;;;;;;;1.77;75.73;100034.19;10519871;28;20043;-75
2022/11/21 13:12:21;;;;;;;1.65;1.52;;;;;;;1.87;76.16;100036.31;10519994;28;20290;-75
2022/11/21 13:17:29;;;;;;;0.80;0.52;;;;;;;1.93;75.95;100027.94;10511977;28;20435;-75
2022/11/21 13:22:34;;;;;;;1.73;1.23;;;;;;;2.11;75.87;100022.63;10521057;28;20074;-76
2022/11/21 13:27:43;;;;;;;1.33;0.88;;;;;;;2.22;76.05;100025.59;10522015;28;20487;-76
2022/11/21 13:32:53;;;;;;;2.17;1.48;;;;;;;2.28;75.75;100026.75;10519599;28;20052;-75
2022/11/21 13:38:03;;;;;;;0.93;0.70;;;;;;;2.30;75.89;100013.88;10521918;28;20065;-75
2022/11/21 13:43:23;;;;;;;1.45;1.02;;;;;;;2.32;75.25;100001.88;10520196;28;20459;-75
2022/11/21 13:48:53;;;;;;;0.57;0.57;;;;;;;2.33;75.04;100008.81;10512150;28;20392;-75
2022/11/21 13:54:04;;;;;;;1.85;1.67;;;;;;;2.29;75.07;100007.81;10519380;28;20320;-75
2022/11/21 13:59:24;;;;;;;2.35;1.63;;;;;;;2.20;74.86;99997.13;10526341;28;20040;-75
2022/11/21 14:04:30;;;;;;;1.20;0.93;;;;;;;2.12;74.96;99983.06;10518591;28;20537;-76
2022/11/21 14:09:38;;;;;;;2.22;1.20;;;;;;;2.01;75.09;99986.91;10475247;28;20040;-76
2022/11/21 14:14:59;;;;;;;0.40;0.40;;;;;;;1.81;75.23;99975.81;10477738;28;20048;-75
2022/11/21 14:20:30;;;;;;;2.33;1.48;;;;;;;1.76;75.11;99976.50;10479430;28;20052;-74
2022/11/21 14:25:40;;;;;;;1.42;1.23;;;;;;;1.69;75.24;99983.97;10485958;28;20048;-76
2022/11/21 14:30:44;;;;;;;1.33;1.23;;;;;;;1.66;75.54;99960.59;10485238;28;20048;-75
2022/11/21 14:35:59;;;;;;;0.68;0.68;;;;;;;1.62;75.73;99950.97;10487029;28;20098;-75
2022/11/21 14:41:28;;;;;;;1.10;0.93;;;;;;;1.58;76.21;99958.59;10484721;28;20033;-73
2022/11/21 14:46:34;;;;;;;0.50;0.50;;;;;;;1.45;76.36;99956.34;10477462;28;20307;-75
2022/11/21 14:51:40;;;;;;;1.77;0.60;;;;;;;1.41;76.72;99931.22;10484687;28;20052;-74
2022/11/21 14:56:56;;;;;;;1.00;0.85;;;;;;;1.38;76.75;99936.28;10485428;28;20052;-73
2022/11/21 15:02:06;;;;;;;0.63;0.60;;;;;;;1.21;76.86;99923.56;10483798;28;20044;-75
2022/11/21 15:07:25;;;;;;;0.82;0.63;;;;;;;1.06;77.00;99920.38;10500551;28;20044;-74
2022/11/21 15:12:45;;;;;;;0.70;0.63;;;;;;;0.91;77.73;99904.28;10485072;28;20063;-75
2022/11/21 15:17:57;;;;;;;0.38;0.32;;;;;;;0.70;77.80;99880.22;10478349;28;20054;-75
2022/11/21 15:23:27;;;;;;;1.23;0.87;;;;;;;0.58;78.55;99884.00;10482422;28;20048;-75
2022/11/21 15:28:30;;;;;;;2.55;1.95;;;;;;;0.44;78.66;99870.53;10479683;28;20055;-74
2022/11/21 15:33:55;;;;;;;0.82;0.82;;;;;;;0.38;79.04;99871.16;10480017;28;20040;-75
2022/11/21 15:39:21;;;;;;;1.65;1.23;;;;;;;0.34;79.61;99867.53;10480094;28;20039;-74
2022/11/21 15:44:22;;;;;;;0.70;0.70;;;;;;;0.29;80.08;99855.31;10482621;28;20044;-74
2022/11/21 15:49:24;;;;;;;3.17;1.60;;;;;;;0.17;80.59;99851.34;10498556;28;20047;-75
2022/11/21 15:54:33;;;;;;;1.70;1.53;;;;;;;0.19;80.57;99858.28;10483673;28;20049;-73
2022/11/21 15:59:35;;;;;;;1.25;0.75;;;;;;;0.10;80.63;99867.34;10481218;28;20040;-74
2022/11/21 16:04:36;;;;;;;0.95;0.80;;;;;;;0.04;80.96;99859.34;10483176;28;20059;-76
2022/11/21 16:09:39;;;;;;;2.28;1.33;;;;;;;0.00;81.38;99198.59;10474535;28;20052;-75
2022/11/21 16:14:41;;;;;;;3.03;1.67;;;;;;;0.08;81.56;99838.09;10483138;28;20045;-74
2022/11/21 16:19:44;;;;;;;0.47;0.45;;;;;;;-147.53;81.52;83666.44;10480823;28;20224;-75
2022/11/21 16:24:46;;;;;;;0.50;0.50;;;;;;;0.10;81.72;99839.03;10480242;28;20044;-74
2022/11/21 16:29:47;;;;;;;0.98;0.93;;;;;;;0.16;82.03;99833.28;10469919;28;20290;-74
2022/11/21 16:34:53;;;;;;;0.20;0.20;;;;;;;0.25;81.66;99828.50;10482085;28;20056;-74
2022/11/21 16:40:09;;;;;;;2.60;1.17;;;;;;;0.37;81.62;99828.16;10479865;28;20044;-75
2022/11/21 16:45:18;;;;;;;0.63;0.50;;;;;;;0.37;81.55;99812.72;10479644;28;20102;-76
2022/11/21 16:50:24;;;;;;;2.30;1.52;;;;;;;0.35;81.97;99815.22;10481601;28;20040;-75
2022/11/21 16:55:29;;;;;;;0.57;0.47;;;;;;;0.34;81.84;99810.00;10470971;28;20049;-74
2022/11/21 17:00:33;;;;;;;0.30;0.30;;;;;;;0.30;81.74;99792.66;10495912;28;20411;-75
2022/11/21 17:05:37;;;;;;;1.73;1.45;;;;;;;0.30;82.06;99784.94;10481278;28;20048;-74
2022/11/21 17:10:42;;;;;;;0.68;0.68;;;;;;;0.25;82.09;99786.44;10464693;28;20036;-74
2022/11/21 17:15:48;;;;;;;0.30;0.30;;;;;;;0.14;81.87;99781.72;10480452;28;20044;-75
2022/11/21 17:20:50;;;;;;;1.67;0.93;;;;;;;0.09;82.01;99769.44;10478026;28;20113;-75
2022/11/21 17:25:52;;;;;;;0.70;0.70;;;;;;;0.02;82.45;99754.59;10472263;28;20090;-74
2022/11/21 17:30:56;;;;;;;0.38;0.38;;;;;;;0.01;82.73;99748.53;10480901;28;20044;-75
2022/11/21 17:36:06;;;;;;;1.75;1.23;;;;;;;0.00;82.55;99736.50;10478836;28;20287;-74
2022/11/21 17:41:09;;;;;;;;;;;;;;;-0.01;82.85;99729.59;10496774;28;20028;-74
2022/11/21 17:46:32;;;;;;;2.05;1.40;;;;;;;0.04;83.08;99716.91;10482465;28;19928;-75
2022/11/21 17:51:47;;;;;;;3.30;2.47;;;;;;;-0.02;83.09;99705.53;10485939;28;20032;-73
2022/11/21 17:56:55;;;;;;;0.77;0.57;;;;;;;-0.14;82.53;99688.72;10481286;28;20052;-76
2022/11/21 18:02:02;;;;;;;0.68;0.55;;;;;;;-0.25;82.92;99685.69;10463623;28;20047;-75
2022/11/21 18:07:06;;;;;;;0.32;0.32;;;;;;;-0.36;83.10;99669.78;10458426;28;20397;-74
2022/11/21 18:12:12;;;;;;;1.40;0.65;;;;;;;-0.49;82.86;99652.06;10460041;28;20496;-75
2022/11/21 18:17:14;;;;;;;0.63;0.63;;;;;;;-0.60;83.45;99656.72;10473624;28;20043;-75
2022/11/21 18:22:21;;;;;;;0.45;0.45;;;;;;;-0.68;83.90;99656.41;10494714;28;20040;-75
2022/11/21 18:27:32;;;;;;;2.35;1.60;;;;;;;-0.71;83.98;99643.41;10480662;28;20067;-76
2022/11/21 18:32:35;;;;;;;1.17;0.95;;;;;;;-0.84;84.13;99646.25;10471938;28;20087;-76
2022/11/21 18:37:37;;;;;;;0.40;0.40;;;;;;;-0.93;84.38;99642.47;10472394;28;20053;-74
2022/11/21 18:42:39;;;;;;;0.77;0.77;;;;;;;-1.03;84.80;99640.28;10482998;28;20102;-75
2022/11/21 18:47:45;;;;;;;1.50;1.27;;;;;;;-1.08;84.99;99641.78;10471976;28;20059;-75
2022/11/21 18:52:52;;;;;;;1.67;1.55;;;;;;;-1.16;85.56;99658.53;10443955;28;20041;-74
2022/11/21 18:57:54;;;;;;;1.40;1.25;;;;;;;-1.22;86.01;99647.97;10474675;28;20040;-74
2022/11/21 19:03:00;;;;;;;2.35;1.65;;;;;;;-1.23;86.21;99641.97;10476941;28;20051;-73
2022/11/21 19:08:03;;;;;;;1.35;1.08;;;;;;;-1.31;86.45;99653.56;10472596;28;20048;-74
2022/11/21 19:13:05;;;;;;;1.95;1.73;;;;;;;-1.30;86.40;99665.59;10479295;28;20044;-74
2022/11/21 19:18:08;;;;;;;0.82;0.52;;;;;;;-1.27;86.52;99676.03;10479118;28;21555;-74
2022/11/21 19:23:11;;;;;;;2.42;1.10;;;;;;;-1.20;87.03;99656.63;10477365;28;20477;-74
2022/11/21 19:28:13;;;;;;;1.38;1.10;;;;;;;-1.20;86.98;99656.63;10473025;28;20148;-75
2022/11/21 19:33:17;;;;;;;1.35;1.02;;;;;;;-1.12;87.40;99652.72;10460416;28;20459;-75
2022/11/21 19:38:22;;;;;;;1.85;1.30;;;;;;;-1.17;87.37;99646.47;10500901;28;20048;-74
2022/11/21 19:43:27;;;;;;;2.25;1.05;;;;;;;-1.27;87.57;99635.78;10513675;28;20499;-74
2022/11/21 19:48:30;;;;;;;1.77;1.67;;;;;;;-1.41;87.53;99634.28;10506081;28;20443;-74
2022/11/21 19:53:40;;;;;;;2.85;2.13;;;;;;;-1.49;87.48;99625.34;10504620;28;20134;-74
2022/11/21 19:58:43;;;;;;;1.67;1.58;;;;;;;-1.48;87.76;99619.41;10524539;28;20131;-74
2022/11/21 20:03:47;;;;;;;2.38;1.98;;;;;;;-1.51;87.75;99624.41;10504311;28;20511;-74
2022/11/21 20:08:50;;;;;;;1.02;0.80;;;;;;;-1.63;88.02;99630.69;10470559;28;20044;-74
2022/11/21 20:13:52;;;;;;;3.45;1.88;;;;;;;-1.64;88.24;99636.63;10490993;28;20044;-77
2022/11/21 20:18:56;;;;;;;3.75;1.08;;;;;;;-1.57;88.15;99636.94;10516737;28;20063;-76
2022/11/21 20:23:58;;;;;;;0.82;0.73;;;;;;;-1.54;88.70;99625.13;10497103;28;20051;-76
2022/11/21 20:29:05;;;;;;;1.92;1.80;;;;;;;-1.57;88.72;99619.84;10519044;28;20143;-73
2022/11/21 20:34:11;;;;;;;3.13;2.17;;;;;;;-1.58;88.79;99601.81;10517429;28;20040;-74
2022/11/21 20:39:25;;;;;;;2.00;1.73;;;;;;;-1.57;88.57;99588.19;10520032;28;20105;-74
2022/11/21 20:44:46;;;;;;;0.40;0.40;;;;;;;-1.62;88.81;99576.00;10521353;28;20059;-74
2022/11/21 20:50:08;;;;;;;0.80;0.80;;;;;;;-1.59;89.28;99585.53;10517055;28;20491;-73
2022/11/21 20:55:12;;;;;;;2.83;1.85;;;;;;;-1.55;89.05;99577.16;10515573;28;20056;-75
2022/11/21 21:00:14;;;;;;;2.05;0.85;;;;;;;-1.51;89.12;99573.06;10524682;28;20123;-74
2022/11/21 21:05:18;;;;;;;0.75;0.40;;;;;;;-1.50;89.45;99574.78;10521437;28;20048;-75
2022/11/21 21:10:24;;;;;;;1.25;0.90;;;;;;;-1.48;89.50;99583.47;10521766;28;20089;-77
2022/11/21 21:15:27;;;;;;;3.13;2.47;;;;;;;-1.48;89.51;99578.31;10525095;28;20534;-76
2022/11/21 21:20:31;;;;;;;1.17;1.08;;;;;;;-1.52;89.75;99585.00;10525198;28;20457;-75
2022/11/21 21:25:53;;;;;;;0.95;0.70;;;;;;;-1.46;89.52;99581.81;10524666;28;20056;-75
2022/11/21 21:31:01;;;;;;;4.57;2.85;;;;;;;-1.47;89.78;99582.63;10523845;28;20123;-76
2022/11/21 21:36:16;;;;;;;0.95;0.88;;;;;;;-1.46;90.20;99575.00;10521848;28;20052;-76
2022/11/21 21:41:19;;;;;;;3.10;1.63;;;;;;;-1.45;89.84;99573.31;10523507;28;20089;-76
2022/11/21 21:46:26;;;;;;;0.60;0.60;;;;;;;-1.40;90.19;99559.00;10521677;28;20474;-74
2022/11/21 21:51:31;;;;;;;1.77;1.65;;;;;;;-1.39;90.13;99553.06;10522058;28;20118;-74
2022/11/21 21:56:35;;;;;;;2.72;1.40;;;;;;;-1.37;90.48;99551.44;10521593;28;20056;-74
2022/11/21 22:01:42;;;;;;;1.40;0.98;;;;;;;-1.33;90.65;99537.06;10520874;28;20059;-75
2022/11/21 22:06:47;;;;;;;4.25;1.50;;;;;;;-1.26;90.42;99532.25;10522416;28;20416;-75
2022/11/21 22:12:11;;;;;;;1.13;1.00;;;;;;;-1.29;90.40;99519.28;10495394;28;20363;-75
2022/11/21 22:17:15;;;;;;;1.88;1.60;;;;;;;-1.23;90.59;99515.19;10520247;28;20040;-74
2022/11/21 22:22:20;;;;;;;0.80;0.80;;;;;;;-1.18;90.66;99500.88;10510406;28;20619;-73
2022/11/21 22:27:26;;;;;;;1.25;1.10;;;;;;;-1.17;90.75;99497.47;10502980;28;20055;-73
2022/11/21 22:32:29;;;;;;;0.88;0.85;;;;;;;-1.26;90.76;99488.59;10520065;28;20292;-74
2022/11/21 22:37:32;;;;;;;2.45;1.80;;;;;;;-1.30;90.88;99491.81;10520967;28;20492;-74
2022/11/21 22:42:33;;;;;;;1.02;1.00;;;;;;;-1.23;91.09;99482.72;10523937;28;20051;-74
2022/11/21 22:47:35;;;;;;;1.55;1.45;;;;;;;-1.22;91.12;99479.31;10528513;28;20297;-74
2022/11/21 22:52:37;;;;;;;3.72;2.45;;;;;;;-1.24;91.22;99462.97;10528422;28;20043;-74
2022/11/21 22:57:39;;;;;;;2.55;2.35;;;;;;;-1.22;91.17;99466.47;10526171;28;20105;-73
2022/11/21 23:02:43;;;;;;;3.80;2.72;;;;;;;-1.18;91.21;99467.50;10521999;28;20055;-74
2022/11/21 23:07:54;;;;;;;4.15;2.17;;;;;;;-1.15;91.25;99465.06;10542018;28;20515;-73
2022/11/21 23:13:01;;;;;;;3.23;2.70;;;;;;;-1.16;91.41;99465.84;10523999;28;20056;-75
2022/11/21 23:18:08;;;;;;;0.70;0.70;;;;;;;-1.13;91.58;99448.88;10507508;28;20044;-75
2022/11/21 23:23:12;;;;;;;3.00;2.08;;;;;;;-1.07;91.68;99453.41;10507557;28;20051;-74
2022/11/21 23:28:14;;;;;;;1.17;1.10;;;;;;;-1.04;92.14;99452.66;10542166;28;20040;-74
2022/11/21 23:33:16;;;;;;;1.13;0.95;;;;;;;-0.96;92.12;99439.31;10524932;28;20044;-74
2022/11/21 23:38:18;;;;;;;1.55;1.45;;;;;;;-0.91;92.09;99440.38;10524920;28;20518;-74
2022/11/21 23:43:24;;;;;;;4.38;1.48;;;;;;;-0.84;92.53;99438.97;10524426;28;20040;-75
2022/11/21 23:48:28;;;;;;;1.75;1.45;;;;;;;-0.71;92.62;99437.75;10526459;28;20040;-75
2022/11/21 23:53:30;;;;;;;1.85;1.75;;;;;;;-0.69;92.78;99435.22;10523780;28;20048;-75
2022/11/21 23:58:32;;;;;;;3.00;2.47;;;;;;;-0.61;92.64;99436.44;10522736;28;20396;-75
